createdAt,value
2023-02-25T07:13:50.061Z,98497.91
2023-02-25T07:14:52.577Z,98502.06
2023-02-25T07:15:54.801Z,98501.78
2023-02-25T07:16:57.047Z,98498.13
2023-02-25T07:17:59.923Z,98500.88
2023-02-25T07:19:02.448Z,98501.53
2023-02-25T07:20:05.040Z,98502.16
2023-02-25T07:22:24.135Z,98501.22
2023-02-25T07:23:26.676Z,98506.50
2023-02-25T07:24:29.036Z,98502.00
2023-02-25T07:25:32.129Z,98506.91
2023-02-25T07:26:34.938Z,98502.66
2023-02-25T07:27:42.413Z,98507.72
2023-02-25T07:28:48.232Z,98499.50
2023-02-25T07:29:50.511Z,98500.97
2023-02-25T07:30:52.826Z,98497.16
2023-02-25T07:31:55.355Z,98496.22
2023-02-25T07:32:57.769Z,98489.13
2023-02-25T07:34:03.468Z,98495.81
2023-02-25T07:35:06.285Z,98496.13
2023-02-25T07:36:09.994Z,98497.03
2023-02-25T07:37:12.743Z,98496.22
2023-02-25T07:38:14.918Z,98490.75
2023-02-25T07:39:17.459Z,98493.81
2023-02-25T07:40:20.033Z,98497.03
2023-02-25T07:41:23.298Z,98501.03
2023-02-25T07:42:29.028Z,98499.09
2023-02-25T07:43:34.865Z,98505.75
2023-02-25T07:44:37.671Z,98498.56
2023-02-25T07:45:40.541Z,98496.41
2023-02-25T07:46:42.816Z,98496.56
2023-02-25T07:47:46.218Z,98506.63
2023-02-25T07:48:48.889Z,98510.22
2023-02-25T07:49:51.988Z,98503.69
2023-02-25T07:50:55.755Z,98507.94
2023-02-25T07:51:58.230Z,98503.00
2023-02-25T07:53:01.180Z,98505.56
2023-02-25T07:54:03.778Z,98503.97
2023-02-25T07:55:07.224Z,98492.47
2023-02-25T07:56:10.171Z,98494.28
2023-02-25T07:57:12.719Z,98493.31
2023-02-25T07:58:18.683Z,98492.38
2023-02-25T07:59:22.342Z,98495.22
2023-02-25T08:00:25.048Z,98486.19
2023-02-25T08:01:32.079Z,98492.44
2023-02-25T08:02:34.677Z,98494.84
2023-02-25T08:03:37.853Z,98490.31
2023-02-25T08:04:40.673Z,98489.75
2023-02-25T08:05:43.104Z,98496.56
2023-02-25T08:06:47.058Z,98485.75
2023-02-25T08:07:49.739Z,98486.97
2023-02-25T08:08:52.689Z,98488.28
2023-02-25T08:09:55.061Z,98491.66
2023-02-25T08:10:57.438Z,98481.13
2023-02-25T08:11:59.897Z,98489.91
2023-02-25T08:13:02.457Z,98484.28
2023-02-25T08:14:05.863Z,98497.34
2023-02-25T08:15:08.421Z,98498.69
2023-02-25T08:16:14.007Z,98495.22
2023-02-25T08:17:16.680Z,98500.75
2023-02-25T08:18:19.092Z,98498.25
2023-02-25T08:19:21.582Z,98500.38
2023-02-25T08:20:24.314Z,98490.88
2023-02-25T08:21:26.981Z,98485.63
2023-02-25T08:22:29.352Z,98491.00
2023-02-25T08:23:31.726Z,98489.59
2023-02-25T08:24:34.052Z,98488.34
2023-02-25T08:25:36.327Z,98497.75
2023-02-25T08:26:38.749Z,98498.25
2023-02-25T08:27:41.059Z,98496.03
2023-02-25T08:28:45.010Z,98493.75
2023-02-25T08:29:47.324Z,98489.53
2023-02-25T08:30:50.749Z,98488.91
2023-02-25T08:31:53.173Z,98487.97
2023-02-25T08:32:57.433Z,98485.44
2023-02-25T08:33:59.935Z,98494.16
2023-02-25T08:35:03.338Z,98496.41
2023-02-25T08:36:11.857Z,98487.16
2023-02-25T08:37:14.191Z,98487.91
2023-02-25T08:38:16.759Z,98494.19
2023-02-25T08:39:19.353Z,98481.13
2023-02-25T08:40:21.750Z,98491.81
2023-02-25T08:41:26.023Z,98496.56
2023-02-25T08:42:28.736Z,98484.88
2023-02-25T08:43:32.144Z,98488.81
2023-02-25T08:44:34.514Z,98489.25
2023-02-25T08:45:40.497Z,98478.28
2023-02-25T08:46:45.961Z,98487.69
2023-02-25T08:47:48.624Z,98474.25
2023-02-25T08:48:52.562Z,98473.00
2023-02-25T08:49:54.761Z,98477.81
2023-02-25T08:51:02.107Z,98490.66
2023-02-25T08:52:04.328Z,98493.69
2023-02-25T08:53:06.682Z,98483.41
2023-02-25T08:54:13.379Z,98495.19
2023-02-25T08:55:16.431Z,98486.41
2023-02-25T08:56:19.020Z,98495.97
2023-02-25T08:57:21.276Z,98499.84
2023-02-25T08:58:23.470Z,98499.03
2023-02-25T08:59:25.791Z,98504.00
2023-02-25T09:00:28.967Z,98496.25
2023-02-25T09:01:44.702Z,98499.84
2023-02-25T09:02:48.086Z,98499.53
2023-02-25T09:03:53.723Z,98503.16
2023-02-25T09:04:56.882Z,98503.03
2023-02-25T09:05:59.145Z,98501.81
2023-02-25T09:07:02.096Z,98491.53
2023-02-25T09:08:04.911Z,98486.81
2023-02-25T09:09:07.243Z,98482.19
2023-02-25T09:10:10.240Z,98488.41
2023-02-25T09:11:12.650Z,98492.59
2023-02-25T09:12:15.123Z,98485.28
2023-02-25T09:13:17.608Z,98496.50
2023-02-25T09:14:21.581Z,98492.28
2023-02-25T09:15:24.752Z,98492.97
2023-02-25T09:16:31.136Z,98489.75
2023-02-25T09:17:33.517Z,98490.69
2023-02-25T09:18:35.976Z,98487.59
2023-02-25T09:19:38.936Z,98486.59
2023-02-25T09:20:41.269Z,98489.31
2023-02-25T09:21:45.004Z,98494.25
2023-02-25T09:22:47.200Z,98490.28
2023-02-25T09:23:52.517Z,98493.19
2023-02-25T09:24:55.408Z,98491.97
2023-02-25T09:26:02.829Z,98488.53
2023-02-25T09:27:07.808Z,98483.84
2023-02-25T09:28:10.502Z,98484.94
2023-02-25T09:29:12.713Z,98494.56
2023-02-25T09:30:15.666Z,98488.31
2023-02-25T09:31:18.656Z,98478.72
2023-02-25T09:32:21.862Z,98484.47
2023-02-25T09:33:25.499Z,98481.97
2023-02-25T09:34:27.699Z,98479.44
2023-02-25T09:35:30.030Z,98484.75
2023-02-25T09:36:32.848Z,98482.16
2023-02-25T09:37:35.205Z,98484.66
2023-02-25T09:38:39.461Z,98485.53
2023-02-25T09:39:43.064Z,98486.47
2023-02-25T09:40:47.160Z,98486.56
2023-02-25T09:41:57.547Z,98488.59
2023-02-25T09:43:20.004Z,98484.28
2023-02-25T09:44:27.540Z,98490.31
2023-02-25T09:45:34.305Z,98486.38
2023-02-25T09:46:41.421Z,98487.66
2023-02-25T09:47:55.268Z,98487.91
2023-02-25T09:49:05.764Z,98483.63
2023-02-25T09:50:23.714Z,98485.19
2023-02-25T09:51:36.769Z,98484.34
2023-02-25T09:52:45.082Z,98496.00
2023-02-25T09:53:56.836Z,98482.63
2023-02-25T09:55:20.792Z,98476.59
2023-02-25T09:56:26.765Z,98485.63
2023-02-25T09:57:31.617Z,98476.50
2023-02-25T09:58:41.458Z,98484.06
2023-02-25T09:59:43.666Z,98484.53
2023-02-25T10:00:58.317Z,98484.09
2023-02-25T10:02:02.933Z,98488.16
2023-02-25T10:03:35.044Z,98479.97
2023-02-25T10:04:51.924Z,98478.69
2023-02-25T10:06:03.587Z,98484.81
2023-02-25T10:07:16.761Z,98482.44
2023-02-25T10:08:25.674Z,98476.44
2023-02-25T10:09:46.291Z,98479.59
2023-02-25T10:11:06.072Z,98479.81
2023-02-25T10:12:13.290Z,98486.66
2023-02-25T10:13:48.421Z,98489.00
2023-02-25T10:15:34.972Z,98487.16
2023-02-25T10:16:54.457Z,98485.84
2023-02-25T10:18:22.895Z,98489.41
2023-02-25T10:19:55.933Z,98490.56
2023-02-25T10:21:17.266Z,98489.09
2023-02-25T10:22:31.997Z,98487.88
2023-02-25T10:24:11.158Z,98493.44
2023-02-25T10:25:20.390Z,98494.41
2023-02-25T10:26:25.805Z,98484.53
2023-02-25T10:27:37.761Z,98482.22
2023-02-25T10:28:43.125Z,98487.56
2023-02-25T10:29:52.633Z,98485.13
2023-02-25T10:31:05.955Z,98479.84
2023-02-25T10:32:22.537Z,98486.13
2023-02-25T10:33:27.943Z,98480.13
2023-02-25T10:34:32.918Z,98471.44
2023-02-25T10:35:39.239Z,98475.41
2023-02-25T10:36:45.748Z,98468.56
2023-02-25T10:37:48.112Z,98473.81
2023-02-25T10:38:53.054Z,98478.53
2023-02-25T10:39:58.749Z,98477.91
2023-02-25T10:41:01.272Z,98477.38
2023-02-25T10:42:03.625Z,98472.19
2023-02-25T10:43:24.448Z,98475.59
2023-02-25T10:44:26.658Z,98469.56
2023-02-25T10:45:32.326Z,98471.22
2023-02-25T10:46:51.284Z,98472.69
2023-02-25T10:48:12.288Z,98459.78
2023-02-25T10:49:23.194Z,98474.81
2023-02-25T10:50:44.352Z,98472.53
2023-02-25T10:52:02.926Z,98462.09
2023-02-25T10:53:14.080Z,98463.31
2023-02-25T10:54:16.289Z,98468.53
2023-02-25T10:55:41.117Z,98470.09
2023-02-25T10:56:46.052Z,98467.03
2023-02-25T10:57:50.364Z,98468.91
2023-02-25T10:59:05.913Z,98473.19
2023-02-25T11:00:32.345Z,98466.34
2023-02-25T11:01:39.294Z,98468.53
2023-02-25T11:02:43.227Z,98467.13
2023-02-25T11:03:59.559Z,98466.72
2023-02-25T11:05:01.825Z,98463.25
2023-02-25T11:06:22.132Z,98463.97
2023-02-25T11:07:35.549Z,98454.94
2023-02-25T11:08:37.736Z,98467.59
2023-02-25T11:09:40.116Z,98457.66
2023-02-25T11:10:42.293Z,98463.25
2023-02-25T11:12:21.062Z,98455.16
2023-02-25T11:13:28.893Z,98463.91
2023-02-25T11:14:33.036Z,98459.47
2023-02-25T11:15:45.117Z,98460.22
2023-02-25T11:16:48.326Z,98465.91
2023-02-25T11:17:51.737Z,98459.84
2023-02-25T11:18:58.426Z,98461.84
2023-02-25T11:20:02.292Z,98459.50
2023-02-25T11:21:09.939Z,98458.09
2023-02-25T11:22:28.262Z,98471.19
2023-02-25T11:24:02.025Z,98464.22
2023-02-25T11:25:15.825Z,98472.16
2023-02-25T11:26:41.460Z,98471.78
2023-02-25T11:27:49.812Z,98475.53
2023-02-25T11:28:52.089Z,98474.69
2023-02-25T11:29:59.892Z,98477.09
2023-02-25T11:31:16.006Z,98473.78
2023-02-25T11:32:21.513Z,98471.06
2023-02-25T11:33:34.070Z,98470.25
2023-02-25T11:34:43.730Z,98474.47
2023-02-25T11:35:46.240Z,98481.88
2023-02-25T11:36:50.940Z,98470.88
2023-02-25T11:37:55.434Z,98486.34
2023-02-25T11:39:21.520Z,98480.94
2023-02-25T11:40:27.885Z,98486.94
2023-02-25T11:41:34.230Z,98487.31
2023-02-25T11:42:37.471Z,98492.06
2023-02-25T11:43:42.196Z,98496.78
2023-02-25T11:44:45.588Z,98492.03
2023-02-25T11:45:53.519Z,98490.69
2023-02-25T11:47:14.447Z,98491.81
2023-02-25T11:48:21.143Z,98496.38
2023-02-25T11:49:46.305Z,98489.31
2023-02-25T11:50:56.841Z,98481.19
2023-02-25T11:52:36.649Z,98481.09
2023-02-25T11:53:39.057Z,98481.63
2023-02-25T11:55:20.495Z,98485.69
2023-02-25T11:56:32.325Z,98497.16
2023-02-25T11:57:44.142Z,98499.03
2023-02-25T11:59:10.681Z,98493.91
2023-02-25T12:00:55.440Z,98491.00
2023-02-25T12:02:29.437Z,98492.22
2023-02-25T12:03:55.014Z,98490.03
2023-02-25T12:05:07.330Z,98480.09
2023-02-25T12:06:58.392Z,98477.88
2023-02-25T12:08:13.381Z,98485.88
2023-02-25T12:09:50.929Z,98491.78
2023-02-25T12:11:12.445Z,98482.75
2023-02-25T12:12:37.932Z,98486.06
2023-02-25T12:14:08.677Z,98495.25
2023-02-25T12:15:23.618Z,98486.09
2023-02-25T12:16:38.310Z,98502.25
2023-02-25T12:18:14.736Z,98494.84
2023-02-25T12:19:38.686Z,98485.41
2023-02-25T12:20:52.628Z,98477.63
2023-02-25T12:22:29.220Z,98483.19
2023-02-25T12:23:43.452Z,98490.38
2023-02-25T12:25:03.935Z,98482.25
2023-02-25T12:26:25.118Z,98478.19
2023-02-25T12:27:52.388Z,98480.59
2023-02-25T12:29:17.383Z,98481.94
2023-02-25T12:30:38.701Z,98484.03
2023-02-25T12:31:56.912Z,98482.50
2023-02-25T12:33:53.304Z,98473.91
2023-02-25T12:35:18.440Z,98478.75
2023-02-25T12:36:31.781Z,98479.13
2023-02-25T12:37:34.361Z,98467.09
2023-02-25T12:39:00.991Z,98478.47
2023-02-25T12:40:36.317Z,98475.38
2023-02-25T12:41:59.570Z,98463.19
2023-02-25T12:43:30.788Z,98463.50
2023-02-25T12:44:44.211Z,98453.63
2023-02-25T12:46:03.591Z,98455.44
2023-02-25T12:47:42.486Z,98456.63
2023-02-25T12:49:09.469Z,98461.88
2023-02-25T12:50:35.567Z,98458.66
2023-02-25T12:51:59.347Z,98459.09
2023-02-25T12:53:47.132Z,98446.34
2023-02-25T12:55:17.331Z,98447.53
2023-02-25T12:56:41.191Z,98435.25
2023-02-25T12:57:50.756Z,98438.06
2023-02-25T12:59:23.243Z,98432.50
2023-02-25T13:00:44.237Z,98424.13
2023-02-25T13:02:23.138Z,98424.28
2023-02-25T13:03:58.040Z,98421.81
2023-02-25T13:05:41.106Z,98425.09
2023-02-25T13:07:14.764Z,98418.94
2023-02-25T13:08:49.270Z,98416.06
2023-02-25T13:10:23.843Z,98413.88
2023-02-25T13:12:09.476Z,98418.47
2023-02-25T13:13:24.421Z,98414.72
2023-02-25T13:14:54.479Z,98412.69
2023-02-25T13:16:15.216Z,98407.41
2023-02-25T13:17:24.759Z,98405.84
2023-02-25T13:18:45.305Z,98406.25
2023-02-25T13:20:28.927Z,98403.03
2023-02-25T13:21:53.657Z,98410.91
2023-02-25T13:23:37.209Z,98412.81
2023-02-25T13:24:48.716Z,98408.38
2023-02-25T13:26:12.137Z,98404.28
2023-02-25T13:27:37.541Z,98394.03
2023-02-25T13:28:50.035Z,98408.72
2023-02-25T13:30:12.013Z,98409.84
2023-02-25T13:31:34.768Z,98406.72
2023-02-25T13:32:45.958Z,98398.75
2023-02-25T13:33:58.358Z,98399.91
2023-02-25T13:35:19.220Z,98405.78
2023-02-25T13:36:27.293Z,98405.53
2023-02-25T13:37:41.469Z,98400.25
2023-02-25T13:39:18.727Z,98405.75
2023-02-25T13:40:27.094Z,98409.22
2023-02-25T13:41:51.289Z,98408.78
2023-02-25T13:43:00.962Z,98410.44
2023-02-25T13:44:19.650Z,98396.69
2023-02-25T13:46:00.530Z,98395.28
2023-02-25T13:47:17.780Z,98407.53
2023-02-25T13:48:41.771Z,98401.03
2023-02-25T13:50:14.853Z,98407.31
2023-02-25T13:51:39.726Z,98404.72
2023-02-25T13:53:17.946Z,98396.50
2023-02-25T13:54:38.276Z,98396.41
2023-02-25T13:56:01.275Z,98399.91
2023-02-25T13:57:25.155Z,98402.34
2023-02-25T13:59:03.300Z,98399.50
2023-02-25T14:00:43.624Z,98391.72
2023-02-25T14:02:08.775Z,98399.81
2023-02-25T14:03:30.548Z,98396.41
2023-02-25T14:04:58.002Z,98397.66
2023-02-25T14:06:29.083Z,98412.72
2023-02-25T14:08:10.158Z,98414.53
2023-02-25T14:09:21.855Z,98405.69
2023-02-25T14:10:46.819Z,98407.03
2023-02-25T14:12:11.719Z,98408.88
2023-02-25T14:13:40.865Z,98418.44
2023-02-25T14:15:17.510Z,98410.00
2023-02-25T14:16:45.301Z,98403.16
2023-02-25T14:18:03.743Z,98404.41
2023-02-25T14:19:20.227Z,98403.72
2023-02-25T14:21:01.344Z,98394.16
2023-02-25T14:22:22.813Z,98406.34
2023-02-25T14:23:40.982Z,98398.28
2023-02-25T14:25:19.684Z,98409.22
2023-02-25T14:26:28.886Z,98409.00
2023-02-25T14:27:34.065Z,98409.28
2023-02-25T14:29:07.580Z,98403.75
2023-02-25T14:30:28.189Z,98407.66
2023-02-25T14:32:09.435Z,98401.13
2023-02-25T14:33:15.280Z,98400.72
2023-02-25T14:34:29.771Z,98403.22
2023-02-25T14:35:41.160Z,98406.97
2023-02-25T14:37:10.041Z,98415.44
2023-02-25T14:38:16.100Z,98406.84
2023-02-25T14:39:54.257Z,98410.91
2023-02-25T14:41:20.015Z,98415.50
2023-02-25T14:42:56.664Z,98416.88
2023-02-25T14:44:08.056Z,98416.94
2023-02-25T14:45:12.476Z,98416.09
2023-02-25T14:46:37.399Z,98421.38
2023-02-25T14:47:52.860Z,98414.31
2023-02-25T14:49:04.426Z,98415.59
2023-02-25T14:50:22.666Z,98418.50
2023-02-25T14:51:40.474Z,98412.53
2023-02-25T14:53:07.122Z,98415.72
2023-02-25T14:54:32.906Z,98412.03
2023-02-25T14:55:41.707Z,98413.25
2023-02-25T14:57:21.289Z,98420.31
2023-02-25T14:58:59.042Z,98421.09
2023-02-25T15:02:08.008Z,98422.00
2023-02-25T15:03:22.841Z,98425.53
2023-02-25T15:04:40.436Z,98424.34
2023-02-25T15:06:12.247Z,98425.28
2023-02-25T15:07:38.223Z,98434.81
2023-02-25T15:08:47.770Z,98425.03
2023-02-25T15:10:21.628Z,98433.28
2023-02-25T15:12:00.922Z,98430.81
2023-02-25T15:13:16.719Z,98445.50
2023-02-25T15:14:36.566Z,98443.16
2023-02-25T15:15:54.197Z,98447.94
2023-02-25T15:17:21.992Z,98461.81
2023-02-25T15:18:34.060Z,98452.78
2023-02-25T15:19:44.144Z,98464.09
2023-02-25T15:20:47.247Z,98459.22
2023-02-25T15:21:52.209Z,98466.34
2023-02-25T15:23:08.127Z,98463.97
2023-02-25T15:24:38.564Z,98476.16
2023-02-25T15:25:57.205Z,98479.03
2023-02-25T15:27:02.946Z,98480.25
2023-02-25T15:28:32.320Z,98483.06
2023-02-25T15:29:44.751Z,98479.28
2023-02-25T15:31:10.247Z,98473.47
2023-02-25T15:32:23.116Z,98476.00
2023-02-25T15:33:48.180Z,98473.81
2023-02-25T15:35:03.120Z,98473.16
2023-02-25T15:36:14.371Z,98475.59
2023-02-25T15:37:57.634Z,98475.53
2023-02-25T15:39:00.650Z,98478.47
2023-02-25T15:40:15.340Z,98482.88
2023-02-25T15:41:26.792Z,98471.00
2023-02-25T15:42:45.687Z,98476.13
2023-02-25T15:43:48.488Z,98479.13
2023-02-25T15:44:51.271Z,98481.91
2023-02-25T15:46:22.753Z,98484.41
2023-02-25T15:47:28.021Z,98479.75
2023-02-25T15:48:33.704Z,98471.56
2023-02-25T15:49:38.569Z,98474.88
2023-02-25T15:50:42.171Z,98472.59
2023-02-25T15:51:52.937Z,98477.81
2023-02-25T15:52:58.706Z,98475.19
2023-02-25T15:54:02.162Z,98479.06
2023-02-25T15:55:20.313Z,98481.66
2023-02-25T15:56:24.987Z,98486.88
2023-02-25T15:57:37.594Z,98484.78
2023-02-25T15:58:55.058Z,98476.63
2023-02-25T15:59:58.191Z,98481.13
2023-02-25T16:01:06.329Z,98487.97
2023-02-25T16:02:30.666Z,98486.53
2023-02-25T16:03:37.374Z,98490.13
2023-02-25T16:04:50.340Z,98490.00
2023-02-25T16:05:54.973Z,98479.00
2023-02-25T16:07:00.249Z,98496.28
2023-02-25T16:08:17.193Z,98498.31
2023-02-25T16:09:21.027Z,98497.75
2023-02-25T16:10:34.764Z,98492.78
2023-02-25T16:11:44.152Z,98495.28
2023-02-25T16:12:51.122Z,98506.66
2023-02-25T16:13:54.151Z,98503.25
2023-02-25T16:14:59.888Z,98498.97
2023-02-25T16:16:04.253Z,98502.25
2023-02-25T16:17:20.312Z,98510.44
2023-02-25T16:18:34.455Z,98511.25
2023-02-25T16:19:42.080Z,98509.78
2023-02-25T16:20:48.356Z,98516.94
2023-02-25T16:22:03.826Z,98514.91
2023-02-25T16:23:10.761Z,98518.56
2023-02-25T16:24:13.990Z,98519.47
2023-02-25T16:25:25.951Z,98521.06
2023-02-25T16:26:47.002Z,98517.75
2023-02-25T16:28:05.930Z,98521.16
2023-02-25T16:29:20.417Z,98523.78
2023-02-25T16:30:35.278Z,98520.78
2023-02-25T16:32:07.432Z,98526.09
2023-02-25T16:33:29.042Z,98532.09
2023-02-25T16:34:43.307Z,98525.06
2023-02-25T16:36:06.880Z,98531.31
2023-02-25T16:37:19.481Z,98535.75
2023-02-25T16:38:30.508Z,98543.31
2023-02-25T16:39:33.241Z,98541.47
2023-02-25T16:40:38.841Z,98544.09
2023-02-25T16:41:41.598Z,98550.91
2023-02-25T16:42:45.767Z,98548.13
2023-02-25T16:43:48.576Z,98547.88
2023-02-25T16:45:02.241Z,98556.81
2023-02-25T16:46:15.630Z,98561.25
2023-02-25T16:47:29.314Z,98556.28
2023-02-25T16:48:45.918Z,98556.72
2023-02-25T16:49:49.917Z,98565.69
2023-02-25T16:50:54.352Z,98561.44
2023-02-25T16:51:58.129Z,98563.34
2023-02-25T16:53:03.316Z,98563.44
2023-02-25T16:54:17.626Z,98571.88
2023-02-25T16:55:32.246Z,98569.63
2023-02-25T16:56:35.924Z,98573.06
2023-02-25T16:57:38.550Z,98572.50
2023-02-25T16:58:41.179Z,98577.03
2023-02-25T16:59:43.659Z,98584.84
2023-02-25T17:00:54.990Z,98579.94
2023-02-25T17:02:05.907Z,98577.38
2023-02-25T17:03:11.021Z,98585.38
2023-02-25T17:04:29.137Z,98583.03
2023-02-25T17:05:35.085Z,98597.44
2023-02-25T17:06:38.223Z,98596.72
2023-02-25T17:07:40.525Z,98596.78
2023-02-25T17:08:47.786Z,98597.06
2023-02-25T17:09:54.591Z,98602.47
2023-02-25T17:10:58.693Z,98607.53
2023-02-25T17:12:04.055Z,98606.81
2023-02-25T17:13:06.563Z,98611.25
2023-02-25T17:14:11.572Z,98614.94
2023-02-25T17:15:22.245Z,98611.66
2023-02-25T17:16:32.138Z,98615.94
2023-02-25T17:17:41.136Z,98626.38
2023-02-25T17:19:07.148Z,98627.78
2023-02-25T17:20:23.462Z,98638.97
2023-02-25T17:21:30.589Z,98631.44
2023-02-25T17:22:35.241Z,98636.34
2023-02-25T17:23:41.151Z,98640.53
2023-02-25T17:24:43.531Z,98638.63
2023-02-25T17:25:49.164Z,98639.16
2023-02-25T17:26:53.382Z,98646.56
2023-02-25T17:27:58.952Z,98640.94
2023-02-25T17:29:02.561Z,98652.75
2023-02-25T17:30:11.628Z,98648.50
2023-02-25T17:31:18.287Z,98648.88
2023-02-25T17:32:24.046Z,98649.66
2023-02-25T17:33:28.235Z,98651.09
2023-02-25T17:34:34.967Z,98655.91
2023-02-25T17:35:41.440Z,98652.94
2023-02-25T17:36:45.221Z,98657.03
2023-02-25T17:37:47.487Z,98663.75
2023-02-25T17:38:55.375Z,98671.38
2023-02-25T17:40:01.451Z,98674.25
2023-02-25T17:41:04.298Z,98675.75
2023-02-25T17:42:36.186Z,98678.44
2023-02-25T17:43:39.346Z,98679.22
2023-02-25T17:44:42.524Z,98674.78
2023-02-25T17:45:53.331Z,98680.38
2023-02-25T17:46:55.723Z,98677.59
2023-02-25T17:47:57.951Z,98678.41
2023-02-25T17:49:03.170Z,98682.75
2023-02-25T17:50:21.039Z,98680.03
2023-02-25T17:51:38.631Z,98684.94
2023-02-25T17:52:41.086Z,98684.59
2023-02-25T17:53:46.363Z,98687.94
2023-02-25T17:54:58.448Z,98696.56
2023-02-25T17:56:14.854Z,98681.72
2023-02-25T17:57:22.108Z,98683.09
2023-02-25T17:58:24.823Z,98692.22
2023-02-25T17:59:38.854Z,98693.22
2023-02-25T18:00:41.239Z,98695.28
2023-02-25T18:01:56.470Z,98690.56
2023-02-25T18:03:18.602Z,98692.91
2023-02-25T18:04:25.159Z,98697.09
2023-02-25T18:05:28.171Z,98703.22
2023-02-25T18:06:41.179Z,98695.38
2023-02-25T18:07:44.933Z,98702.31
2023-02-25T18:08:53.690Z,98693.47
2023-02-25T18:10:00.905Z,98710.38
2023-02-25T18:11:26.250Z,98715.69
2023-02-25T18:12:35.440Z,98710.16
2023-02-25T18:13:38.567Z,98712.69
2023-02-25T18:14:45.618Z,98724.13
2023-02-25T18:15:53.242Z,98722.25
2023-02-25T18:17:02.918Z,98717.00
2023-02-25T18:18:07.551Z,98717.34
2023-02-25T18:19:24.422Z,98732.03
2023-02-25T18:20:34.382Z,98723.69
2023-02-25T18:21:42.582Z,98722.09
2023-02-25T18:22:49.348Z,98720.44
2023-02-25T18:23:52.318Z,98722.97
2023-02-25T18:24:57.029Z,98721.22
2023-02-25T18:26:11.427Z,98724.59
2023-02-25T18:27:26.135Z,98722.94
2023-02-25T18:28:28.681Z,98725.53
2023-02-25T18:29:31.540Z,98730.69
2023-02-25T18:30:34.045Z,98725.72
2023-02-25T18:31:36.490Z,98731.34
2023-02-25T18:32:39.339Z,98738.06
2023-02-25T18:33:41.901Z,98751.72
2023-02-25T18:34:44.224Z,98740.38
2023-02-25T18:35:48.263Z,98747.13
2023-02-25T18:36:50.722Z,98740.31
2023-02-25T18:37:55.932Z,98737.63
2023-02-25T18:39:02.822Z,98735.78
2023-02-25T18:40:06.948Z,98740.03
2023-02-25T18:41:09.306Z,98744.44
2023-02-25T18:42:17.110Z,98741.72
2023-02-25T18:43:22.549Z,98752.94
2023-02-25T18:44:24.922Z,98750.34
2023-02-25T18:45:29.328Z,98746.88
2023-02-25T18:46:31.614Z,98754.59
2023-02-25T18:47:33.837Z,98746.69
2023-02-25T18:48:36.213Z,98757.16
2023-02-25T18:49:38.462Z,98756.03
2023-02-25T18:50:44.294Z,98753.44
2023-02-25T18:51:49.072Z,98764.00
2023-02-25T18:52:51.293Z,98759.72
2023-02-25T18:53:53.527Z,98763.16
2023-02-25T18:54:55.827Z,98763.28
2023-02-25T18:55:58.264Z,98757.16
2023-02-25T18:57:00.570Z,98761.47
2023-02-25T18:58:04.651Z,98761.56
2023-02-25T18:59:06.974Z,98761.56
2023-02-25T19:00:10.268Z,98755.53
2023-02-25T19:01:21.027Z,98773.78
2023-02-25T19:02:39.693Z,98756.53
2023-02-25T19:03:43.714Z,98774.81
2023-02-25T19:04:46.007Z,98772.22
2023-02-25T19:05:48.322Z,98759.31
2023-02-25T19:06:50.574Z,98767.19
2023-02-25T19:07:53.440Z,98768.06
2023-02-25T19:08:55.668Z,98764.75
2023-02-25T19:09:58.134Z,98774.44
2023-02-25T19:11:00.349Z,98772.63
2023-02-25T19:12:02.787Z,98776.97
2023-02-25T19:13:14.638Z,98778.75
2023-02-25T19:14:19.788Z,98766.69
2023-02-25T19:15:22.020Z,98781.31
2023-02-25T19:16:25.164Z,98775.25
2023-02-25T19:17:29.215Z,98784.91
2023-02-25T19:18:31.582Z,98782.38
2023-02-25T19:19:33.858Z,98779.06
2023-02-25T19:20:36.064Z,98790.34
2023-02-25T19:21:38.377Z,98790.28
2023-02-25T19:22:48.648Z,98790.38
2023-02-25T19:23:51.808Z,98793.78
2023-02-25T19:24:54.147Z,98792.97
2023-02-25T19:25:59.980Z,98796.53
2023-02-25T19:27:02.282Z,98803.44
2023-02-25T19:28:06.436Z,98799.91
2023-02-25T19:29:08.638Z,98805.16
2023-02-25T19:30:14.663Z,98810.31
2023-02-25T19:31:17.986Z,98803.19
2023-02-25T19:32:21.275Z,98804.91
2023-02-25T19:33:23.602Z,98808.31
2023-02-25T19:34:25.877Z,98804.88
2023-02-25T19:35:28.922Z,98803.06
2023-02-25T19:36:31.165Z,98805.72
2023-02-25T19:37:36.808Z,98811.50
2023-02-25T19:38:39.098Z,98803.00
2023-02-25T19:39:42.336Z,98806.47
2023-02-25T19:40:46.359Z,98811.69
2023-02-25T19:41:48.885Z,98813.25
2023-02-25T19:42:51.984Z,98813.34
2023-02-25T19:43:54.478Z,98811.66
2023-02-25T19:44:56.738Z,98824.56
2023-02-25T19:45:59.512Z,98822.69
2023-02-25T19:47:02.692Z,98828.81
2023-02-25T19:48:05.020Z,98821.22
2023-02-25T19:49:07.285Z,98821.13
2023-02-25T19:50:11.582Z,98825.47
2023-02-25T19:51:14.184Z,98827.34
2023-02-25T19:52:16.840Z,98827.38
2023-02-25T19:53:19.348Z,98832.44
2023-02-25T19:54:24.549Z,98834.13
2023-02-25T19:55:28.593Z,98834.41
2023-02-25T19:56:30.827Z,98836.97
2023-02-25T19:57:33.613Z,98839.56
2023-02-25T19:58:35.803Z,98836.91
2023-02-25T19:59:38.050Z,98841.28
2023-02-25T20:00:46.058Z,98843.81
2023-02-25T20:01:50.737Z,98832.19
2023-02-25T20:02:54.482Z,98839.75
2023-02-25T20:03:56.731Z,98840.47
2023-02-25T20:04:59.313Z,98848.19
2023-02-25T20:06:06.912Z,98850.28
2023-02-25T20:07:09.252Z,98851.16
2023-02-25T20:08:11.728Z,98850.16
2023-02-25T20:09:14.161Z,98860.66
2023-02-25T20:10:17.198Z,98864.09
2023-02-25T20:11:23.335Z,98865.88
2023-02-25T20:12:25.663Z,98862.44
2023-02-25T20:13:27.933Z,98869.44
2023-02-25T20:14:32.797Z,98861.00
2023-02-25T20:15:35.032Z,98867.47
2023-02-25T20:16:39.623Z,98863.94
2023-02-25T20:17:43.331Z,98865.66
2023-02-25T20:18:48.883Z,98863.91
2023-02-25T20:19:51.140Z,98863.03
2023-02-25T20:20:54.402Z,98860.41
2023-02-25T20:21:57.320Z,98866.47
2023-02-25T20:22:59.812Z,98866.47
2023-02-25T20:24:02.572Z,98877.75
2023-02-25T20:25:05.791Z,98873.41
2023-02-25T20:26:12.586Z,98872.56
2023-02-25T20:27:15.106Z,98878.56
2023-02-25T20:28:17.385Z,98884.63
2023-02-25T20:29:19.775Z,98877.66
2023-02-25T20:30:23.039Z,98882.00
2023-02-25T20:31:26.770Z,98876.75
2023-02-25T20:32:29.850Z,98879.44
2023-02-25T20:33:32.377Z,98882.03
2023-02-25T20:34:34.665Z,98879.34
2023-02-25T20:35:37.124Z,98884.47
2023-02-25T20:36:58.814Z,98887.00
2023-02-25T20:38:22.598Z,98884.47
2023-02-25T20:39:49.540Z,98884.59
2023-02-25T20:40:52.719Z,98882.81
2023-02-25T20:41:55.435Z,98887.06
2023-02-25T20:42:58.203Z,98893.28
2023-02-25T20:44:00.799Z,98894.41
2023-02-25T20:45:03.904Z,98888.31
2023-02-25T20:46:06.607Z,98895.91
2023-02-25T20:47:16.982Z,98898.28
2023-02-25T20:48:30.952Z,98895.78
2023-02-25T20:49:34.107Z,98899.94
2023-02-25T20:50:38.387Z,98898.44
2023-02-25T20:51:45.957Z,98901.97
2023-02-25T20:52:48.354Z,98896.84
2023-02-25T20:53:50.878Z,98903.69
2023-02-25T20:54:53.948Z,98908.72
2023-02-25T20:55:57.584Z,98903.69
2023-02-25T20:57:00.497Z,98901.97
2023-02-25T20:58:05.378Z,98911.44
2023-02-25T20:59:11.965Z,98910.72
2023-02-25T21:00:16.602Z,98908.09
2023-02-25T21:01:22.169Z,98905.41
2023-02-25T21:02:27.300Z,98903.75
2023-02-25T21:03:31.428Z,98902.97
2023-02-25T21:04:34.413Z,98898.66
2023-02-25T21:05:36.721Z,98902.91
2023-02-25T21:06:39.297Z,98899.56
2023-02-25T21:07:41.672Z,98902.19